createdAt,value
2018-09-16T00:02:32.730Z,11.10
2018-09-16T00:05:07.016Z,11.10
2018-09-16T00:07:41.173Z,11.00
2018-09-16T00:10:15.544Z,11.00
2018-09-16T00:12:49.945Z,11.00
2018-09-16T00:15:24.378Z,10.90
2018-09-16T00:17:59.174Z,11.00
2018-09-16T00:20:33.379Z,10.90
2018-09-16T00:23:07.661Z,10.90
2018-09-16T00:25:41.684Z,10.80
2018-09-16T00:28:15.818Z,10.80
2018-09-16T00:30:50.370Z,10.70
2018-09-16T00:33:25.397Z,10.70
2018-09-16T00:36:00.432Z,10.70
2018-09-16T00:38:34.471Z,10.70
2018-09-16T00:41:08.657Z,10.60
2018-09-16T00:43:42.724Z,10.70
2018-09-16T00:46:17.055Z,10.70
2018-09-16T00:48:52.471Z,10.70
2018-09-16T00:51:26.682Z,10.60
2018-09-16T00:54:01.389Z,10.60
2018-09-16T00:56:35.698Z,10.60
2018-09-16T00:59:09.963Z,10.50
2018-09-16T01:01:43.867Z,10.50
2018-09-16T01:04:18.088Z,10.50
2018-09-16T01:06:52.304Z,10.50
2018-09-16T01:09:27.258Z,10.40
2018-09-16T01:12:01.886Z,10.40
2018-09-16T01:14:35.905Z,10.40
2018-09-16T01:17:10.356Z,10.40
2018-09-16T01:19:46.656Z,10.40
2018-09-16T01:22:21.362Z,10.40
2018-09-16T01:24:55.443Z,10.40
2018-09-16T01:27:30.223Z,10.40
2018-09-16T01:30:05.289Z,10.40
2018-09-16T01:32:39.286Z,10.40
2018-09-16T01:35:14.468Z,10.40
2018-09-16T01:37:54.484Z,10.40
2018-09-16T01:40:29.138Z,10.40
2018-09-16T01:43:04.090Z,10.40
2018-09-16T01:45:43.118Z,10.30
2018-09-16T01:48:17.617Z,10.30
2018-09-16T01:50:52.698Z,10.30
2018-09-16T01:53:27.146Z,10.30
2018-09-16T01:56:01.425Z,10.30
2018-09-16T01:58:35.514Z,10.30
2018-09-16T02:01:11.371Z,10.30
2018-09-16T02:03:45.872Z,10.30
2018-09-16T02:06:20.907Z,10.30
2018-09-16T02:08:54.780Z,10.30
2018-09-16T02:11:29.794Z,10.30
2018-09-16T02:14:04.772Z,10.30
2018-09-16T02:16:38.581Z,10.30
2018-09-16T02:19:13.278Z,10.40
2018-09-16T02:21:47.417Z,10.40
2018-09-16T02:24:21.447Z,10.30
2018-09-16T02:26:56.504Z,10.40
2018-09-16T02:29:30.778Z,10.30
2018-09-16T02:32:05.511Z,10.30
2018-09-16T02:34:39.548Z,10.30
2018-09-16T02:37:13.849Z,10.30
2018-09-16T02:39:47.712Z,10.30
2018-09-16T02:42:22.484Z,10.30
2018-09-16T02:44:56.514Z,10.30
2018-09-16T02:47:30.738Z,10.30
2018-09-16T02:50:04.821Z,10.30
2018-09-16T02:52:39.677Z,10.20
2018-09-16T02:55:14.401Z,10.20
2018-09-16T02:57:48.389Z,10.20
2018-09-16T03:00:22.511Z,10.30
2018-09-16T03:02:57.575Z,10.30
2018-09-16T03:05:52.538Z,10.30
2018-09-16T03:08:26.876Z,10.20
2018-09-16T03:11:00.976Z,10.20
2018-09-16T03:13:36.561Z,10.20
2018-09-16T03:16:10.814Z,10.20
2018-09-16T03:18:45.655Z,10.20
2018-09-16T03:21:20.723Z,10.20
2018-09-16T03:23:54.892Z,10.20
2018-09-16T03:26:28.939Z,10.20
2018-09-16T03:29:02.871Z,10.10
2018-09-16T03:31:37.122Z,10.00
2018-09-16T03:34:11.088Z,10.00
2018-09-16T03:36:45.629Z,10.00
2018-09-16T03:39:19.716Z,10.00
2018-09-16T03:41:53.720Z,10.00
2018-09-16T03:44:27.809Z,10.00
2018-09-16T03:47:02.848Z,10.00
2018-09-16T03:49:37.406Z,9.90
2018-09-16T03:52:12.024Z,9.90
2018-09-16T03:54:46.140Z,10.00
2018-09-16T03:57:20.104Z,9.90
2018-09-16T03:59:54.410Z,9.90
2018-09-16T04:02:29.051Z,9.90
2018-09-16T04:05:03.803Z,9.90
2018-09-16T04:07:38.571Z,9.90
2018-09-16T04:10:12.867Z,9.90
2018-09-16T04:12:47.163Z,9.90
2018-09-16T04:15:21.907Z,9.90
2018-09-16T04:18:02.889Z,9.90
2018-09-16T04:20:37.284Z,9.90
2018-09-16T04:23:11.943Z,9.90
2018-09-16T04:25:45.835Z,9.90
2018-09-16T04:28:19.992Z,9.90
2018-09-16T04:30:53.933Z,9.90
2018-09-16T04:33:28.827Z,9.90
2018-09-16T04:36:03.059Z,9.90
2018-09-16T04:38:38.187Z,9.90
2018-09-16T04:41:12.278Z,9.90
2018-09-16T04:43:47.644Z,9.90
2018-09-16T04:46:21.981Z,9.90
2018-09-16T04:48:55.933Z,9.90
2018-09-16T04:51:30.332Z,9.90
2018-09-16T04:54:05.359Z,9.90
2018-09-16T04:56:40.484Z,9.90
2018-09-16T04:59:16.215Z,9.90
2018-09-16T05:01:50.279Z,9.90
2018-09-16T05:04:24.478Z,9.90
2018-09-16T05:06:59.132Z,9.90
2018-09-16T05:09:33.362Z,9.90
2018-09-16T05:12:07.355Z,9.90
2018-09-16T05:14:42.414Z,10.00
2018-09-16T05:17:17.640Z,10.00
2018-09-16T05:19:52.606Z,9.90
2018-09-16T05:22:26.700Z,9.90
2018-09-16T05:25:01.530Z,9.90
2018-09-16T05:27:35.836Z,9.90
2018-09-16T05:30:10.163Z,10.00
2018-09-16T05:32:44.410Z,10.00
2018-09-16T05:35:18.437Z,10.00
2018-09-16T05:37:52.517Z,10.00
2018-09-16T05:40:27.544Z,10.00
2018-09-16T05:43:02.407Z,10.10
2018-09-16T05:45:36.664Z,10.10
2018-09-16T05:48:11.608Z,10.10
2018-09-16T05:50:45.842Z,10.20
2018-09-16T05:53:20.549Z,10.10
2018-09-16T05:55:54.628Z,10.10
2018-09-16T05:58:28.647Z,10.10
2018-09-16T06:01:04.061Z,10.20
2018-09-16T06:03:39.018Z,10.30
2018-09-16T06:06:13.729Z,10.30
2018-09-16T06:08:47.548Z,10.40
2018-09-16T06:11:21.544Z,10.50
2018-09-16T06:13:56.088Z,10.60
2018-09-16T06:16:31.641Z,10.70
2018-09-16T06:19:06.854Z,10.70
2018-09-16T06:21:41.808Z,10.90
2018-09-16T06:24:15.739Z,11.00
2018-09-16T06:26:49.849Z,11.10
2018-09-16T06:29:24.529Z,11.20
2018-09-16T06:31:59.069Z,11.30
2018-09-16T06:34:33.155Z,11.40
2018-09-16T06:37:08.433Z,11.60
2018-09-16T06:39:42.314Z,11.70
2018-09-16T06:42:16.711Z,11.90
2018-09-16T06:44:51.153Z,12.00
2018-09-16T06:47:25.879Z,12.10
2018-09-16T06:50:00.658Z,12.20
2018-09-16T06:52:35.013Z,12.40
2018-09-16T06:55:09.172Z,12.50
2018-09-16T06:57:43.371Z,12.70
2018-09-16T07:00:18.080Z,12.90
2018-09-16T07:02:52.544Z,13.00
2018-09-16T07:05:27.043Z,13.20
2018-09-16T07:08:00.927Z,13.30
2018-09-16T07:10:35.597Z,13.40
2018-09-16T07:13:09.563Z,13.60
2018-09-16T07:15:43.794Z,13.80
2018-09-16T07:18:18.800Z,14.00
2018-09-16T07:20:52.955Z,14.10
2018-09-16T07:23:27.187Z,14.30
2018-09-16T07:26:01.604Z,14.50
2018-09-16T07:28:35.480Z,14.60
2018-09-16T07:31:10.162Z,14.80
2018-09-16T07:33:44.258Z,14.90
2018-09-16T07:36:19.403Z,15.00
2018-09-16T07:38:53.483Z,15.20
2018-09-16T07:41:28.249Z,15.30
2018-09-16T07:44:02.255Z,15.40
2018-09-16T07:46:36.443Z,15.50
2018-09-16T07:49:10.171Z,15.70
2018-09-16T07:51:44.208Z,15.90
2018-09-16T07:54:19.083Z,16.10
2018-09-16T07:56:53.199Z,16.30
2018-09-16T07:59:27.168Z,16.50
2018-09-16T08:02:01.368Z,16.70
2018-09-16T08:04:35.938Z,16.90
2018-09-16T08:07:10.628Z,17.00
2018-09-16T08:09:45.464Z,17.10
2018-09-16T08:12:20.599Z,17.30
2018-09-16T08:14:54.934Z,17.50
2018-09-16T08:17:29.085Z,17.60
2018-09-16T08:20:03.295Z,17.80
2018-09-16T08:22:37.325Z,17.90
2018-09-16T08:25:11.431Z,18.00
2018-09-16T08:27:45.858Z,18.20
2018-09-16T08:30:20.999Z,18.20
2018-09-16T08:32:55.936Z,18.30
2018-09-16T08:35:30.048Z,18.30
2018-09-16T08:38:04.322Z,18.40
2018-09-16T08:40:38.717Z,18.40
2018-09-16T08:43:12.982Z,18.50
2018-09-16T08:45:47.091Z,18.50
2018-09-16T08:48:21.442Z,18.60
2018-09-16T08:50:55.944Z,18.70
2018-09-16T08:53:30.718Z,18.80
2018-09-16T08:56:05.110Z,19.00
2018-09-16T08:58:39.335Z,19.10
2018-09-16T09:01:13.568Z,19.20
2018-09-16T09:03:47.530Z,19.30
2018-09-16T09:06:21.595Z,19.40
2018-09-16T09:08:55.935Z,19.50
2018-09-16T09:11:30.590Z,19.60
2018-09-16T09:14:04.802Z,19.70
2018-09-16T09:16:39.110Z,19.80
2018-09-16T09:19:14.009Z,19.80
2018-09-16T09:21:48.959Z,20.00
2018-09-16T09:24:23.711Z,20.00
2018-09-16T09:26:58.342Z,19.90
2018-09-16T09:29:32.633Z,20.00
2018-09-16T09:32:06.679Z,20.10
2018-09-16T09:34:40.580Z,20.10
2018-09-16T09:37:15.658Z,20.20
2018-09-16T09:39:50.445Z,20.20
2018-09-16T09:42:24.799Z,20.20
2018-09-16T09:45:00.291Z,20.30
2018-09-16T09:47:34.193Z,20.40
2018-09-16T09:50:09.063Z,20.40
2018-09-16T09:52:43.552Z,20.50
2018-09-16T09:55:17.783Z,20.60
2018-09-16T09:57:52.513Z,20.70
2018-09-16T10:00:32.263Z,20.70
2018-09-16T10:03:06.278Z,20.70
2018-09-16T10:05:40.561Z,20.80
2018-09-16T10:08:14.739Z,20.80
2018-09-16T10:10:49.730Z,20.80
2018-09-16T10:13:23.720Z,20.90
2018-09-16T10:15:58.029Z,20.80
2018-09-16T10:18:31.949Z,20.80
2018-09-16T10:21:06.249Z,20.80
2018-09-16T10:23:41.139Z,20.80
2018-09-16T10:26:15.865Z,20.90
2018-09-16T10:28:50.547Z,20.90
2018-09-16T10:31:25.418Z,20.90
2018-09-16T10:34:00.410Z,20.90
2018-09-16T10:36:35.464Z,20.80
2018-09-16T10:39:10.611Z,20.90
2018-09-16T10:41:45.340Z,20.80
2018-09-16T10:44:19.449Z,20.80
2018-09-16T10:46:54.499Z,20.90
2018-09-16T10:49:29.844Z,20.90
2018-09-16T10:52:04.908Z,21.00
2018-09-16T10:54:43.074Z,21.00
2018-09-16T10:57:17.744Z,21.20
2018-09-16T10:59:52.512Z,21.20
2018-09-16T11:02:27.242Z,21.20
2018-09-16T11:05:01.484Z,21.30
2018-09-16T11:07:36.021Z,21.30
2018-09-16T11:10:10.374Z,21.40
2018-09-16T11:12:45.344Z,21.60
2018-09-16T11:15:20.277Z,21.60
2018-09-16T11:17:54.435Z,21.70
2018-09-16T11:20:28.511Z,21.70
2018-09-16T11:23:02.653Z,21.80
2018-09-16T11:25:36.862Z,21.90
2018-09-16T11:28:11.679Z,21.90
2018-09-16T11:30:46.328Z,21.80
2018-09-16T11:33:21.422Z,21.80
2018-09-16T11:35:56.060Z,21.80
2018-09-16T11:38:31.479Z,21.90
2018-09-16T11:41:06.292Z,21.90
2018-09-16T11:43:40.548Z,21.90
2018-09-16T11:46:14.746Z,22.00
2018-09-16T11:48:48.810Z,22.20
2018-09-16T11:51:23.597Z,22.20
2018-09-16T11:53:57.928Z,22.30
2018-09-16T11:56:32.471Z,22.40
2018-09-16T11:59:07.528Z,22.40
2018-09-16T12:01:41.613Z,22.60
2018-09-16T12:04:16.268Z,22.60
2018-09-16T12:06:51.378Z,22.80
2018-09-16T12:09:26.004Z,22.80
2018-09-16T12:12:00.365Z,22.90
2018-09-16T12:14:35.631Z,22.80
2018-09-16T12:17:10.391Z,22.90
2018-09-16T12:19:45.054Z,23.00
2018-09-16T12:22:20.875Z,23.10
2018-09-16T12:24:55.644Z,23.10
2018-09-16T12:27:30.694Z,23.30
2018-09-16T12:30:05.184Z,23.40
2018-09-16T12:32:39.240Z,23.50
2018-09-16T12:35:13.430Z,23.60
2018-09-16T12:37:47.688Z,23.50
2018-09-16T12:40:21.862Z,23.60
2018-09-16T12:42:56.007Z,23.60
2018-09-16T12:45:30.845Z,23.60
2018-09-16T12:48:04.758Z,23.70
2018-09-16T12:50:39.914Z,23.70
2018-09-16T12:53:14.083Z,23.60
2018-09-16T12:55:48.365Z,23.50
2018-09-16T12:58:23.106Z,23.50
2018-09-16T13:00:57.216Z,23.40
2018-09-16T13:03:31.955Z,23.40
2018-09-16T13:06:06.658Z,23.50
2018-09-16T13:08:41.324Z,23.70
2018-09-16T13:11:15.632Z,23.70
2018-09-16T13:13:49.932Z,23.80
2018-09-16T13:16:24.767Z,23.80
2018-09-16T13:18:59.099Z,23.90
2018-09-16T13:21:33.351Z,24.00
2018-09-16T13:24:07.628Z,24.20
2018-09-16T13:26:42.064Z,24.40
2018-09-16T13:29:16.709Z,24.60
2018-09-16T13:31:50.977Z,24.90
2018-09-16T13:34:25.315Z,25.00
2018-09-16T13:36:59.558Z,25.10
2018-09-16T13:39:33.945Z,25.00
2018-09-16T13:42:08.068Z,25.00
2018-09-16T13:44:42.083Z,25.20
2018-09-16T13:47:16.474Z,25.70
2018-09-16T13:49:52.358Z,25.90
2018-09-16T13:52:27.743Z,26.00
2018-09-16T13:55:02.228Z,26.10
2018-09-16T13:57:36.952Z,26.40
2018-09-16T14:00:11.317Z,25.90
2018-09-16T14:02:45.365Z,26.00
2018-09-16T14:05:20.203Z,26.30
2018-09-16T14:07:54.565Z,26.20
2018-09-16T14:10:28.719Z,25.70
2018-09-16T14:13:02.842Z,25.70
2018-09-16T14:15:36.896Z,25.60
2018-09-16T14:18:11.302Z,25.40
2018-09-16T14:20:46.149Z,25.30
2018-09-16T14:23:20.085Z,25.30
2018-09-16T14:25:54.725Z,25.30
2018-09-16T14:28:29.050Z,25.60
2018-09-16T14:31:04.010Z,25.70
2018-09-16T14:33:38.448Z,25.70
2018-09-16T14:36:12.648Z,25.70
2018-09-16T14:38:47.663Z,25.70
2018-09-16T14:41:22.544Z,25.60
2018-09-16T14:43:57.580Z,25.50
2018-09-16T14:46:32.061Z,25.30
2018-09-16T14:49:06.139Z,25.10
2018-09-16T14:51:40.380Z,25.00
2018-09-16T14:54:15.270Z,24.70
2018-09-16T14:56:49.836Z,24.60
2018-09-16T14:59:25.278Z,24.30
2018-09-16T15:02:00.713Z,24.20
2018-09-16T15:04:35.412Z,24.10
2018-09-16T15:07:10.198Z,24.00
2018-09-16T15:09:44.645Z,23.90
2018-09-16T15:12:19.050Z,23.90
2018-09-16T15:14:53.169Z,23.80
2018-09-16T15:17:27.581Z,23.70
2018-09-16T15:20:02.591Z,23.70
2018-09-16T15:22:36.979Z,23.60
2018-09-16T15:25:12.111Z,23.50
2018-09-16T15:27:47.021Z,23.40
2018-09-16T15:30:22.351Z,23.30
2018-09-16T15:32:56.478Z,23.30
2018-09-16T15:35:30.817Z,23.30
2018-09-16T15:38:05.184Z,23.30
2018-09-16T15:40:39.651Z,23.40
2018-09-16T15:43:13.857Z,23.30
2018-09-16T15:45:48.346Z,23.30
2018-09-16T15:48:23.900Z,23.30
2018-09-16T15:50:59.214Z,23.20
2018-09-16T15:53:34.045Z,23.00
2018-09-16T15:56:08.184Z,22.90
2018-09-16T15:58:42.297Z,22.70
2018-09-16T16:01:16.444Z,22.50
2018-09-16T16:03:51.127Z,22.50
2018-09-16T16:06:25.487Z,22.30
2018-09-16T16:09:00.673Z,22.20
2018-09-16T16:11:35.379Z,22.10
2018-09-16T16:14:09.487Z,22.10
2018-09-16T16:16:43.730Z,22.00
2018-09-16T16:19:17.992Z,22.00
2018-09-16T16:21:53.253Z,21.90
2018-09-16T16:24:27.466Z,21.80
2018-09-16T16:27:01.886Z,21.70
2018-09-16T16:29:36.342Z,21.60
2018-09-16T16:32:11.370Z,21.60
2018-09-16T16:34:45.432Z,21.40
2018-09-16T16:37:20.529Z,21.40
2018-09-16T16:39:54.748Z,21.20
2018-09-16T16:42:29.098Z,21.20
2018-09-16T16:45:03.496Z,21.00
2018-09-16T16:47:37.935Z,21.00
2018-09-16T16:50:12.074Z,20.90
2018-09-16T16:52:47.083Z,20.70
2018-09-16T16:55:21.827Z,20.50
2018-09-16T16:57:56.658Z,20.40
2018-09-16T17:00:30.745Z,20.30
2018-09-16T17:03:04.857Z,20.20
2018-09-16T17:05:39.180Z,20.10
2018-09-16T17:08:14.580Z,20.00
2018-09-16T17:10:49.058Z,20.00
2018-09-16T17:13:23.354Z,19.90
2018-09-16T17:15:58.518Z,19.80
2018-09-16T17:18:32.948Z,19.80
2018-09-16T17:21:07.645Z,19.70
2018-09-16T17:23:43.324Z,19.60
2018-09-16T17:26:18.164Z,19.60
2018-09-16T17:28:52.603Z,19.50
2018-09-16T17:31:27.537Z,19.40
2018-09-16T17:34:02.412Z,19.30
2018-09-16T17:36:36.629Z,19.10
2018-09-16T17:39:11.874Z,19.00
2018-09-16T17:41:46.902Z,18.90
2018-09-16T17:44:22.779Z,18.70
2018-09-16T17:46:56.899Z,18.60
2018-09-16T17:49:31.170Z,18.40
2018-09-16T17:52:06.115Z,18.40
2018-09-16T17:54:41.081Z,18.30
2018-09-16T17:57:15.828Z,18.20
2018-09-16T17:59:50.183Z,18.00
2018-09-16T18:02:24.962Z,17.90
2018-09-16T18:04:59.420Z,17.80
2018-09-16T18:07:33.475Z,17.70
2018-09-16T18:10:07.848Z,17.60
2018-09-16T18:12:42.832Z,17.50
2018-09-16T18:15:16.857Z,17.50
2018-09-16T18:17:51.207Z,17.50
2018-09-16T18:20:25.243Z,17.50
2018-09-16T18:22:59.418Z,17.40
2018-09-16T18:25:34.405Z,17.40
2018-09-16T18:28:09.235Z,17.40
2018-09-16T18:30:43.334Z,17.30
2018-09-16T18:33:17.793Z,17.20
2018-09-16T18:35:52.317Z,17.20
2018-09-16T18:38:27.250Z,17.20
2018-09-16T18:41:01.342Z,17.10
2018-09-16T18:43:35.714Z,17.00
2018-09-16T18:46:11.215Z,16.90
2018-09-16T18:48:45.533Z,16.90
2018-09-16T18:51:20.343Z,16.90
2018-09-16T18:53:54.880Z,16.80
2018-09-16T18:56:28.877Z,16.80
2018-09-16T18:59:03.119Z,16.70
2018-09-16T19:01:37.418Z,16.70
2018-09-16T19:04:11.548Z,16.70
2018-09-16T19:06:47.203Z,16.60
2018-09-16T19:09:26.461Z,16.60
2018-09-16T19:12:02.814Z,16.50
2018-09-16T19:14:38.833Z,16.50
2018-09-16T19:17:13.628Z,16.40
2018-09-16T19:19:47.852Z,16.40
2018-09-16T19:22:23.090Z,16.30
2018-09-16T19:24:57.899Z,16.30
2018-09-16T19:27:32.691Z,16.20
2018-09-16T19:30:07.142Z,16.10
2018-09-16T19:32:43.429Z,16.10
2018-09-16T19:35:17.440Z,16.10
2018-09-16T19:37:52.188Z,16.00
2018-09-16T19:40:27.893Z,15.90
2018-09-16T19:43:02.355Z,15.90
2018-09-16T19:45:39.039Z,15.90
2018-09-16T19:48:14.599Z,15.80
2018-09-16T19:50:49.625Z,15.70
2018-09-16T19:53:24.840Z,15.60
2018-09-16T19:55:59.338Z,15.60
2018-09-16T19:58:34.268Z,15.60
2018-09-16T20:01:09.188Z,15.60
2018-09-16T20:03:43.604Z,15.50
2018-09-16T20:06:18.805Z,15.50
2018-09-16T20:08:53.850Z,15.40
2018-09-16T20:11:28.263Z,15.40
2018-09-16T20:14:02.504Z,15.40
2018-09-16T20:16:37.133Z,15.50
2018-09-16T20:19:11.957Z,15.40
2018-09-16T20:21:46.884Z,15.40
2018-09-16T20:24:21.779Z,15.30
2018-09-16T20:26:56.454Z,15.20
2018-09-16T20:29:31.625Z,15.20
2018-09-16T20:32:06.408Z,15.20
2018-09-16T20:34:41.134Z,15.20
2018-09-16T20:37:16.255Z,15.20
2018-09-16T20:39:51.115Z,15.30
2018-09-16T20:42:26.131Z,15.30
2018-09-16T20:45:00.336Z,15.30
2018-09-16T20:47:34.597Z,15.30
2018-09-16T20:50:08.833Z,15.20
2018-09-16T20:52:43.775Z,15.30
2018-09-16T20:55:18.296Z,15.20
2018-09-16T20:57:52.113Z,15.30
2018-09-16T21:00:26.833Z,15.30
2018-09-16T21:03:01.804Z,15.30
2018-09-16T21:05:36.714Z,15.30
2018-09-16T21:08:11.784Z,15.20
2018-09-16T21:10:46.796Z,15.30
2018-09-16T21:13:21.564Z,15.30
2018-09-16T21:15:55.746Z,15.20
2018-09-16T21:18:30.056Z,15.30
2018-09-16T21:21:04.753Z,15.30
2018-09-16T21:23:39.592Z,15.20
2018-09-16T21:26:13.850Z,15.20
2018-09-16T21:28:47.744Z,15.20
2018-09-16T21:31:22.130Z,15.10
2018-09-16T21:33:56.357Z,15.10
2018-09-16T21:36:31.159Z,15.10
2018-09-16T21:39:10.016Z,15.10
2018-09-16T21:41:44.131Z,15.10
2018-09-16T21:44:18.238Z,15.10
2018-09-16T21:46:52.382Z,15.10
2018-09-16T21:49:27.698Z,15.10
2018-09-16T21:52:01.878Z,15.10
2018-09-16T21:54:36.257Z,15.00
2018-09-16T21:57:10.810Z,14.90
2018-09-16T21:59:45.112Z,14.80
2018-09-16T22:02:19.307Z,14.80
2018-09-16T22:04:53.474Z,14.80
2018-09-16T22:07:28.388Z,14.70
2018-09-16T22:10:02.203Z,14.70
2018-09-16T22:12:37.913Z,14.70
2018-09-16T22:15:12.273Z,14.70
2018-09-16T22:17:46.414Z,14.70
2018-09-16T22:20:21.133Z,14.60
2018-09-16T22:22:56.569Z,14.50
2018-09-16T22:25:31.604Z,14.30
2018-09-16T22:28:05.844Z,14.20
2018-09-16T22:30:39.849Z,14.20
2018-09-16T22:33:14.238Z,14.10
2018-09-16T22:35:49.093Z,14.00
2018-09-16T22:38:23.803Z,13.90
2018-09-16T22:40:57.924Z,13.80
2018-09-16T22:43:32.884Z,13.70
2018-09-16T22:46:07.090Z,13.60
2018-09-16T22:48:41.429Z,13.60
2018-09-16T22:51:16.057Z,13.50
2018-09-16T22:53:50.154Z,13.40
2018-09-16T22:56:24.826Z,13.40
2018-09-16T22:58:59.162Z,13.40
2018-09-16T23:01:33.589Z,13.40
2018-09-16T23:04:07.767Z,13.30
2018-09-16T23:06:42.784Z,13.10
2018-09-16T23:09:17.917Z,13.00
2018-09-16T23:11:51.883Z,12.90
2018-09-16T23:14:26.023Z,12.90
2018-09-16T23:17:00.713Z,12.80
2018-09-16T23:19:34.890Z,12.80
2018-09-16T23:22:09.676Z,12.70
2018-09-16T23:24:43.762Z,12.70
2018-09-16T23:27:17.920Z,12.60
2018-09-16T23:29:51.924Z,12.60
2018-09-16T23:32:26.419Z,12.50
2018-09-16T23:35:00.784Z,12.40
2018-09-16T23:37:35.575Z,12.40
2018-09-16T23:40:10.321Z,12.40
2018-09-16T23:42:44.629Z,12.40
2018-09-16T23:45:19.117Z,12.50
2018-09-16T23:47:53.267Z,12.50
2018-09-16T23:50:27.598Z,12.50
2018-09-16T23:53:01.969Z,12.50
2018-09-16T23:55:36.737Z,12.50
2018-09-16T23:58:10.839Z,12.50
